An Chang — VRFE3 — position and weather

sailwx.info

Track history (hours):
 
Tides and Currents Weather Stations Pressure Air Temp Water Temp Dewpoint Dewpoint Depression Visibility Wind Speed Wind Dir Waves Ship Positions

An Chang

Last reported at 2017-Nov-01 18:07 UTC. Time now 2017-Nov-20 21:37 UTC.
Position N 26°30' W 014°57'.
Warning: this ship's position is 19 days out of date.

Length 190 m; draft 9.7 m.

Type: Cargo ship. MMSI: 477218600.

Date/timePositionNaut miles runAvg speedWind from/ knotsBaromVisibWave heightAir tempDewpointWater temp
2017-Nov-01 18:07N 26°30' W 014°57'  
2017-Oct-27 17:45N 38°20' W 000°30'0 0.0
2017-Oct-27 17:27N 38°20' W 000°30'0 0.0
2017-Oct-27 16:57N 38°20' W 000°30'0 0.0
2017-Oct-27 16:27N 38°20' W 000°30'0 0.0
2017-Oct-27 15:39N 38°20' W 000°30'0 0.0
2017-Oct-26 18:18N 38°20' W 000°30'0 0.0
2017-Oct-26 18:00N 38°20' W 000°30'0 0.0
2017-Oct-26 17:30N 38°20' W 000°30'0 0.0
2017-Oct-26 17:00N 38°20' W 000°30'0 0.0
2017-Oct-26 16:30N 38°20' W 000°30'2 0.2
2017-Oct-26 05:22N 38°19' W 000°27'2 5.3
2017-Oct-26 04:57N 38°18' W 000°24'2 5.6
2017-Oct-26 04:30N 38°18' W 000°21'2 4.8
2017-Oct-26 04:00N 38°18' W 000°18'510.8
2017-Oct-26 03:30N 38°18' W 000°11'714.0
2017-Oct-26 03:00N 38°17' W 000°03'814.0
2017-Oct-26 02:25N 38°17' E 000°08'613.8
2017-Oct-26 01:59N 38°16' E 000°16'613.5
2017-Oct-26 01:30N 38°16' E 000°24'713.2
2017-Oct-26 01:00N 38°16' E 000°32'713.2
2017-Oct-26 00:30N 38°15' E 000°41'713.4
2017-Oct-26 00:00N 38°15' E 000°49'713.5
2017-Oct-25 23:28N 38°14' E 000°58'713.6
2017-Oct-25 22:58N 38°14' E 001°07'5314.3
2017-Oct-25 19:15N 38°10' E 002°15'1614.2
2017-Oct-25 18:09N 38°09' E 002°35'614.5
2017-Oct-25 17:42N 38°09' E 002°43'314.8
2017-Oct-25 17:30N 38°09' E 002°46'52012.8
2017-Oct-24 00:53N 36°43' E 013°32'410.6
2017-Oct-24 00:30N 36°42' E 013°37'611.1
2017-Oct-24 00:00N 36°40' E 013°44'611.0
2017-Oct-23 23:30N 36°38' E 013°50'510.9
2017-Oct-23 23:00N 36°37' E 013°57'510.5
2017-Oct-23 22:30N 36°35' E 014°03'510.6
2017-Oct-23 22:00N 36°34' E 014°09'510.7
2017-Oct-23 21:30N 36°32' E 014°16'510.6
2017-Oct-23 21:00N 36°31' E 014°22'5 9.9
2017-Oct-23 20:30N 36°26' E 014°25'510.2
2017-Oct-23 20:00N 36°25' E 014°31'610.6
2017-Oct-23 19:28N 36°24' E 014°38'510.0
2017-Oct-23 18:58N 36°23' E 014°44'  
Track history (hours):
 
Tides and Currents Weather Stations Pressure Air Temp Water Temp Dewpoint Dewpoint Depression Visibility Wind Speed Wind Dir Waves Ship Positions

An Chang

Last reported at 2017-Nov-01 18:07 UTC. Time now 2017-Nov-20 21:37 UTC.
Position N 26°30' W 014°57'.
Warning: this ship's position is 19 days out of date.

Length 190 m; draft 9.7 m.

Type: Cargo ship. MMSI: 477218600.

Date/timePositionNaut miles runAvg speedWind from/ knotsBaromVisibWave heightAir tempDewpointWater temp
2017-Nov-01 18:07N 26°30' W 014°57'  
2017-Oct-27 17:45N 38°20' W 000°30'0 0.0
2017-Oct-27 17:27N 38°20' W 000°30'0 0.0
2017-Oct-27 16:57N 38°20' W 000°30'0 0.0
2017-Oct-27 16:27N 38°20' W 000°30'0 0.0
2017-Oct-27 15:39N 38°20' W 000°30'0 0.0
2017-Oct-26 18:18N 38°20' W 000°30'0 0.0
2017-Oct-26 18:00N 38°20' W 000°30'0 0.0
2017-Oct-26 17:30N 38°20' W 000°30'0 0.0
2017-Oct-26 17:00N 38°20' W 000°30'0 0.0
2017-Oct-26 16:30N 38°20' W 000°30'2 0.2
2017-Oct-26 05:22N 38°19' W 000°27'2 5.3
2017-Oct-26 04:57N 38°18' W 000°24'2 5.6
2017-Oct-26 04:30N 38°18' W 000°21'2 4.8
2017-Oct-26 04:00N 38°18' W 000°18'510.8
2017-Oct-26 03:30N 38°18' W 000°11'714.0
2017-Oct-26 03:00N 38°17' W 000°03'814.0
2017-Oct-26 02:25N 38°17' E 000°08'613.8
2017-Oct-26 01:59N 38°16' E 000°16'613.5
2017-Oct-26 01:30N 38°16' E 000°24'713.2
2017-Oct-26 01:00N 38°16' E 000°32'713.2
2017-Oct-26 00:30N 38°15' E 000°41'713.4
2017-Oct-26 00:00N 38°15' E 000°49'713.5
2017-Oct-25 23:28N 38°14' E 000°58'713.6
2017-Oct-25 22:58N 38°14' E 001°07'5314.3
2017-Oct-25 19:15N 38°10' E 002°15'1614.2
2017-Oct-25 18:09N 38°09' E 002°35'614.5
2017-Oct-25 17:42N 38°09' E 002°43'314.8
2017-Oct-25 17:30N 38°09' E 002°46'52012.8
2017-Oct-24 00:53N 36°43' E 013°32'410.6
2017-Oct-24 00:30N 36°42' E 013°37'611.1
2017-Oct-24 00:00N 36°40' E 013°44'611.0
2017-Oct-23 23:30N 36°38' E 013°50'510.9
2017-Oct-23 23:00N 36°37' E 013°57'510.5
2017-Oct-23 22:30N 36°35' E 014°03'510.6
2017-Oct-23 22:00N 36°34' E 014°09'510.7
2017-Oct-23 21:30N 36°32' E 014°16'510.6
2017-Oct-23 21:00N 36°31' E 014°22'5 9.9
2017-Oct-23 20:30N 36°26' E 014°25'510.2
2017-Oct-23 20:00N 36°25' E 014°31'610.6
2017-Oct-23 19:28N 36°24' E 014°38'510.0
2017-Oct-23 18:58N 36°23' E 014°44'  

Dump ship's entire track history